createdAt,value
2019-04-30T00:00:07.055Z,8.00
2019-04-30T00:02:45.314Z,8.10
2019-04-30T00:05:19.112Z,8.10
2019-04-30T00:07:55.033Z,8.00
2019-04-30T00:10:29.499Z,8.10
2019-04-30T00:12:57.131Z,8.10
2019-04-30T00:15:27.792Z,8.10
2019-04-30T00:18:01.740Z,8.10
2019-04-30T00:20:34.624Z,8.10
2019-04-30T00:23:02.081Z,8.10
2019-04-30T00:25:32.318Z,8.10
2019-04-30T00:28:05.246Z,8.00
2019-04-30T00:30:35.160Z,8.10
2019-04-30T00:33:06.940Z,8.10
2019-04-30T00:35:37.214Z,8.10
2019-04-30T00:38:08.903Z,8.10
2019-04-30T00:40:39.315Z,8.10
2019-04-30T00:43:09.619Z,8.20
2019-04-30T00:45:44.181Z,8.20
2019-04-30T00:48:11.895Z,8.20
2019-04-30T00:50:42.224Z,8.20
2019-04-30T00:53:14.824Z,8.20
2019-04-30T00:55:48.455Z,8.20
2019-04-30T00:58:28.916Z,8.20
2019-04-30T01:03:13.140Z,8.20
2019-04-30T01:05:47.905Z,8.30
2019-04-30T01:08:21.059Z,8.30
2019-04-30T01:10:50.645Z,8.30
2019-04-30T01:13:20.882Z,8.30
2019-04-30T01:15:52.570Z,8.30
2019-04-30T01:18:23.512Z,8.30
2019-04-30T01:20:55.451Z,8.30
2019-04-30T01:23:25.802Z,8.30
2019-04-30T01:25:56.408Z,8.30
2019-04-30T01:28:28.436Z,8.30
2019-04-30T01:31:01.971Z,8.30
2019-04-30T01:33:34.728Z,8.30
2019-04-30T01:36:09.590Z,8.30
2019-04-30T01:38:40.405Z,8.20
2019-04-30T01:41:12.713Z,8.20
2019-04-30T01:43:43.653Z,8.30
2019-04-30T01:46:14.102Z,8.30
2019-04-30T01:48:50.569Z,8.30
2019-04-30T01:51:18.396Z,8.30
2019-04-30T01:53:48.574Z,8.30
2019-04-30T01:56:36.734Z,8.30
2019-04-30T01:59:29.151Z,8.30
2019-04-30T02:01:59.404Z,8.30
2019-04-30T02:04:31.502Z,8.30
2019-04-30T02:07:01.772Z,8.30
2019-04-30T02:09:32.014Z,8.30
2019-04-30T02:12:02.262Z,8.30
2019-04-30T02:14:32.825Z,8.30
2019-04-30T02:17:03.139Z,8.40
2019-04-30T02:19:33.504Z,8.30
2019-04-30T02:22:03.799Z,8.40
2019-04-30T02:24:34.075Z,8.40
2019-04-30T02:27:23.545Z,8.40
2019-04-30T02:29:53.908Z,8.40
2019-04-30T02:32:24.140Z,8.40
2019-04-30T02:35:03.516Z,8.40
2019-04-30T02:37:35.407Z,8.40
2019-04-30T02:40:09.958Z,8.30
2019-04-30T02:42:40.060Z,8.30
2019-04-30T02:45:11.798Z,8.30
2019-04-30T02:47:42.861Z,8.40
2019-04-30T02:50:18.449Z,8.40
2019-04-30T02:52:50.271Z,8.40
2019-04-30T02:55:30.524Z,8.40
2019-04-30T02:58:00.771Z,8.40
2019-04-30T03:03:00.203Z,8.50
2019-04-30T03:05:31.147Z,8.50
2019-04-30T03:08:01.372Z,8.60
2019-04-30T03:10:31.509Z,8.50
2019-04-30T03:13:01.754Z,8.50
2019-04-30T03:15:31.864Z,8.50
2019-04-30T03:18:12.786Z,8.60
2019-04-30T03:21:01.903Z,8.60
2019-04-30T03:23:32.105Z,8.60
2019-04-30T03:26:02.236Z,8.50
2019-04-30T03:28:32.661Z,8.60
2019-04-30T03:31:04.553Z,8.60
2019-04-30T03:33:34.923Z,8.60
2019-04-30T03:36:05.179Z,8.60
2019-04-30T03:38:35.392Z,8.60
2019-04-30T03:41:05.903Z,8.60
2019-04-30T03:43:36.121Z,8.60
2019-04-30T03:46:09.909Z,8.60
2019-04-30T03:48:39.592Z,8.60
2019-04-30T03:51:10.561Z,8.60
2019-04-30T03:53:42.710Z,8.60
2019-04-30T03:56:13.163Z,8.60
2019-04-30T03:58:43.388Z,8.60
2019-04-30T04:01:30.608Z,8.60
2019-04-30T04:04:25.124Z,8.60
2019-04-30T04:07:04.673Z,8.60
2019-04-30T04:09:40.777Z,8.60
2019-04-30T04:12:23.771Z,8.60
2019-04-30T04:14:54.149Z,8.60
2019-04-30T04:17:24.671Z,8.60
2019-04-30T04:19:55.025Z,8.60
2019-04-30T04:22:25.382Z,8.60
2019-04-30T04:24:55.664Z,8.60
2019-04-30T04:27:25.921Z,8.60
2019-04-30T04:29:56.125Z,8.60
2019-04-30T04:32:26.525Z,8.70
2019-04-30T04:34:59.910Z,8.70
2019-04-30T04:37:30.277Z,8.70
2019-04-30T04:40:00.764Z,8.70
2019-04-30T04:42:33.926Z,8.70
2019-04-30T04:45:10.277Z,8.70
2019-04-30T04:47:40.532Z,8.70
2019-04-30T04:50:11.276Z,8.70
2019-04-30T04:52:41.643Z,8.70
2019-04-30T04:55:13.506Z,8.70
2019-04-30T04:57:43.951Z,8.80
2019-04-30T05:03:12.114Z,8.70
2019-04-30T05:05:42.375Z,8.80
2019-04-30T05:08:12.978Z,8.80
2019-04-30T05:10:49.534Z,8.80
2019-04-30T05:13:20.254Z,8.80
2019-04-30T05:15:51.554Z,8.80
2019-04-30T05:18:34.256Z,8.80
2019-04-30T05:21:04.640Z,8.90
2019-04-30T05:23:34.988Z,8.90
2019-04-30T05:26:05.290Z,8.90
2019-04-30T05:28:35.675Z,8.90
2019-04-30T05:31:06.044Z,9.00
2019-04-30T05:33:36.380Z,9.00
2019-04-30T05:36:06.790Z,9.00
2019-04-30T05:38:39.116Z,9.00
2019-04-30T05:41:09.452Z,9.00
2019-04-30T05:43:39.942Z,9.00
2019-04-30T05:46:10.971Z,9.00
2019-04-30T05:48:41.298Z,9.00
2019-04-30T05:51:14.673Z,9.10
2019-04-30T05:53:45.319Z,9.00
2019-04-30T05:56:15.854Z,9.00
2019-04-30T05:58:56.808Z,9.00
2019-04-30T06:01:35.861Z,9.00
2019-04-30T06:04:09.532Z,9.00
2019-04-30T06:06:49.016Z,9.00
2019-04-30T06:09:41.717Z,9.00
2019-04-30T06:12:46.326Z,9.00
2019-04-30T06:15:52.526Z,9.00
2019-04-30T06:18:33.220Z,9.10
2019-04-30T06:21:09.185Z,9.10
2019-04-30T06:23:39.450Z,9.10
2019-04-30T06:26:13.216Z,9.10
2019-04-30T06:28:43.173Z,9.10
2019-04-30T06:31:13.850Z,9.10
2019-04-30T06:33:44.389Z,9.20
2019-04-30T06:36:14.840Z,9.10
2019-04-30T06:38:45.148Z,9.10
2019-04-30T06:45:09.260Z,9.20
2019-04-30T06:51:30.579Z,9.20
2019-04-30T06:58:12.199Z,9.20
2019-04-30T07:24:49.661Z,9.40
2019-04-30T07:27:24.213Z,9.40
2019-04-30T07:29:54.771Z,9.40
2019-04-30T07:32:25.465Z,9.40
2019-04-30T07:34:55.830Z,9.40
2019-04-30T07:37:26.145Z,9.50
2019-04-30T07:39:56.500Z,9.50
2019-04-30T07:50:03.678Z,9.50
2019-04-30T07:59:55.347Z,9.60
2019-04-30T08:09:39.195Z,9.40
2019-04-30T08:36:48.912Z,9.70
2019-04-30T08:39:19.785Z,9.80
2019-04-30T08:41:50.268Z,9.80
2019-04-30T08:44:22.092Z,9.90
2019-04-30T08:46:53.750Z,9.90
2019-04-30T08:49:24.312Z,10.10
2019-04-30T08:51:54.883Z,10.10
2019-04-30T08:54:26.938Z,10.20
2019-04-30T08:56:57.290Z,10.10
2019-04-30T09:02:54.631Z,10.00
2019-04-30T09:05:30.719Z,10.10
2019-04-30T09:08:01.099Z,10.10
2019-04-30T09:10:31.643Z,10.10
2019-04-30T09:13:09.470Z,10.10
2019-04-30T09:15:40.804Z,10.20
2019-04-30T09:18:15.868Z,10.40
2019-04-30T09:20:46.471Z,10.60
2019-04-30T09:23:18.729Z,10.80
2019-04-30T09:25:52.467Z,10.80
2019-04-30T09:28:22.958Z,10.80
2019-04-30T09:30:54.126Z,10.90
2019-04-30T09:33:29.405Z,10.90
2019-04-30T09:35:59.986Z,10.90
2019-04-30T09:38:30.426Z,10.80
2019-04-30T09:41:00.816Z,10.80
2019-04-30T09:43:37.365Z,10.70
2019-04-30T09:46:17.990Z,10.80
2019-04-30T09:48:40.177Z,10.90
2019-04-30T09:51:11.350Z,10.90
2019-04-30T09:53:42.220Z,11.10
2019-04-30T09:56:12.614Z,11.30
2019-04-30T09:58:44.464Z,11.20
2019-04-30T10:01:18.030Z,11.10
2019-04-30T10:03:50.348Z,11.30
2019-04-30T10:06:20.854Z,11.40
2019-04-30T10:08:51.438Z,11.50
2019-04-30T10:11:28.522Z,11.50
2019-04-30T10:14:00.053Z,11.40
2019-04-30T10:16:45.105Z,11.30
2019-04-30T10:19:15.827Z,11.30
2019-04-30T10:21:46.615Z,11.30
2019-04-30T10:24:17.111Z,11.20
2019-04-30T10:26:47.603Z,11.00
2019-04-30T10:29:21.412Z,11.00
2019-04-30T10:31:52.135Z,11.00
2019-04-30T10:34:22.711Z,11.10
2019-04-30T10:36:53.837Z,11.20
2019-04-30T10:39:25.198Z,11.30
2019-04-30T10:41:55.637Z,11.40
2019-04-30T10:44:26.410Z,11.70
2019-04-30T10:46:56.709Z,12.00
2019-04-30T10:49:29.201Z,12.40
2019-04-30T10:52:01.151Z,13.00
2019-04-30T10:54:32.340Z,13.10
2019-04-30T10:57:03.108Z,13.50
2019-04-30T11:03:19.066Z,13.30
2019-04-30T11:05:41.283Z,13.20
2019-04-30T11:08:11.827Z,13.10
2019-04-30T11:10:43.706Z,13.00
2019-04-30T11:13:14.115Z,13.40
2019-04-30T11:15:50.383Z,13.70
2019-04-30T11:18:20.949Z,13.70
2019-04-30T11:20:53.029Z,13.70
2019-04-30T11:23:34.640Z,14.10
2019-04-30T11:26:05.895Z,14.50
2019-04-30T11:28:36.753Z,14.70
2019-04-30T11:31:26.279Z,14.70
2019-04-30T11:33:57.803Z,14.70
2019-04-30T11:36:29.168Z,14.80
2019-04-30T11:38:59.664Z,15.10
2019-04-30T11:41:33.056Z,15.30
2019-04-30T11:44:09.269Z,15.40
2019-04-30T11:47:16.314Z,15.30
2019-04-30T11:49:46.613Z,15.20
2019-04-30T11:52:19.981Z,14.90
2019-04-30T11:54:54.159Z,15.10
2019-04-30T11:57:22.328Z,15.20
2019-04-30T11:59:58.373Z,15.30
2019-04-30T12:02:53.233Z,15.40
2019-04-30T12:05:23.730Z,15.20
2019-04-30T12:08:11.437Z,14.50
2019-04-30T12:13:26.770Z,14.10
2019-04-30T12:15:58.837Z,14.10
2019-04-30T12:18:29.590Z,14.30
2019-04-30T12:21:00.053Z,14.50
2019-04-30T12:23:32.867Z,15.10
2019-04-30T12:26:03.282Z,15.70
2019-04-30T12:28:33.600Z,16.00
2019-04-30T12:31:05.880Z,15.70
2019-04-30T12:33:38.838Z,15.30
2019-04-30T12:36:09.306Z,15.10
2019-04-30T12:38:39.719Z,15.30
2019-04-30T12:41:12.692Z,15.40
2019-04-30T12:43:46.111Z,15.80
2019-04-30T12:46:16.458Z,16.10
2019-04-30T12:49:11.522Z,16.40
2019-04-30T12:51:52.930Z,16.60
2019-04-30T12:54:29.273Z,16.50
2019-04-30T12:57:19.130Z,15.90
2019-04-30T13:03:02.971Z,15.90
2019-04-30T13:05:39.605Z,15.80
2019-04-30T13:08:10.602Z,15.60
2019-04-30T13:10:41.754Z,15.30
2019-04-30T13:13:13.914Z,15.00
2019-04-30T13:15:44.608Z,14.70
2019-04-30T13:18:14.989Z,14.90
2019-04-30T13:20:45.406Z,15.30
2019-04-30T13:23:15.585Z,15.70
2019-04-30T13:25:51.531Z,16.30
2019-04-30T13:28:22.767Z,16.30
2019-04-30T13:30:52.935Z,16.20
2019-04-30T13:33:39.292Z,16.00
2019-04-30T13:36:10.069Z,15.80
2019-04-30T13:38:52.224Z,15.70
2019-04-30T13:41:38.248Z,15.70
2019-04-30T13:44:29.313Z,15.60
2019-04-30T13:46:59.696Z,15.80
2019-04-30T13:49:30.241Z,16.00
2019-04-30T13:52:03.604Z,16.00
2019-04-30T13:54:34.024Z,16.00
2019-04-30T13:57:09.111Z,16.00
2019-04-30T13:59:51.510Z,16.20
2019-04-30T14:02:21.847Z,16.30
2019-04-30T14:05:02.848Z,16.20
2019-04-30T14:08:02.520Z,16.00
2019-04-30T14:10:39.373Z,16.00
2019-04-30T14:13:10.252Z,16.00
2019-04-30T14:15:48.256Z,15.90
2019-04-30T14:18:28.615Z,15.70
2019-04-30T14:20:53.895Z,15.50
2019-04-30T14:23:28.853Z,15.30
2019-04-30T14:26:12.195Z,15.20
2019-04-30T14:28:42.438Z,15.20
2019-04-30T14:31:18.643Z,15.20
2019-04-30T14:33:53.750Z,15.20
2019-04-30T14:36:24.161Z,15.20
2019-04-30T14:38:55.019Z,15.50
2019-04-30T14:41:25.995Z,15.90
2019-04-30T14:44:05.412Z,16.30
2019-04-30T14:46:46.251Z,16.60
2019-04-30T14:49:36.527Z,16.90
2019-04-30T14:52:09.375Z,16.80
2019-04-30T14:55:26.565Z,16.90
2019-04-30T14:58:20.410Z,16.90
2019-04-30T15:03:50.566Z,16.90
2019-04-30T15:06:25.723Z,16.50
2019-04-30T15:08:59.039Z,16.20
2019-04-30T15:11:29.899Z,16.10
2019-04-30T15:14:01.426Z,16.30
2019-04-30T15:16:38.374Z,16.40
2019-04-30T15:50:39.707Z,17.20
2019-04-30T15:53:34.514Z,17.30
2019-04-30T15:56:09.699Z,17.30
2019-04-30T15:58:41.825Z,17.20
2019-04-30T16:41:02.473Z,16.30
2019-04-30T16:43:43.906Z,16.30
2019-04-30T16:46:31.168Z,16.30
2019-04-30T16:49:14.395Z,16.30
2019-04-30T16:52:01.184Z,16.30
2019-04-30T17:13:54.133Z,16.20
2019-04-30T17:16:24.646Z,17.80
2019-04-30T17:18:54.951Z,18.10
2019-04-30T17:21:26.055Z,18.50
2019-04-30T17:23:58.921Z,18.70
2019-04-30T17:26:29.300Z,18.60
2019-04-30T17:28:59.924Z,18.80
2019-04-30T17:31:30.484Z,18.80
2019-04-30T17:34:00.694Z,18.90
2019-04-30T17:36:31.093Z,19.00
2019-04-30T17:39:01.303Z,18.90
2019-04-30T17:41:31.510Z,18.80
2019-04-30T17:44:02.059Z,18.80
2019-04-30T17:46:32.483Z,18.40
2019-04-30T17:49:02.660Z,18.10
2019-04-30T17:51:33.016Z,17.60
2019-04-30T17:54:18.182Z,17.10
2019-04-30T17:56:51.230Z,16.50
2019-04-30T17:59:21.636Z,16.00
2019-04-30T18:01:57.125Z,15.70
2019-04-30T18:04:29.558Z,15.40
2019-04-30T18:07:00.444Z,15.00
2019-04-30T18:09:31.082Z,14.70
2019-04-30T18:12:01.368Z,14.60
2019-04-30T18:14:31.604Z,14.50
2019-04-30T18:17:01.800Z,14.30
2019-04-30T18:19:40.828Z,14.00
2019-04-30T18:22:30.045Z,13.80
2019-04-30T18:25:08.698Z,13.50
2019-04-30T18:27:46.300Z,13.20
2019-04-30T18:30:21.113Z,12.90
2019-04-30T18:32:51.019Z,12.60
2019-04-30T18:35:21.195Z,12.40
2019-04-30T18:37:53.996Z,12.20
2019-04-30T18:40:24.401Z,12.00
2019-04-30T18:42:54.740Z,11.80
2019-04-30T18:45:25.157Z,11.60
2019-04-30T18:47:55.422Z,11.50
2019-04-30T18:50:25.782Z,11.30
2019-04-30T18:52:58.731Z,11.10
2019-04-30T18:55:32.150Z,11.00
2019-04-30T18:58:02.600Z,10.90
2019-04-30T19:03:01.556Z,10.60
2019-04-30T19:05:31.994Z,10.50
2019-04-30T19:08:09.847Z,10.40
2019-04-30T19:11:03.383Z,10.30
2019-04-30T19:14:36.514Z,10.30
2019-04-30T19:17:42.039Z,10.20
2019-04-30T19:20:28.698Z,10.00
2019-04-30T19:23:15.405Z,10.00
2019-04-30T19:25:43.226Z,9.90
2019-04-30T19:28:14.561Z,9.80
2019-04-30T19:31:11.624Z,9.70
2019-04-30T19:34:01.885Z,9.70
2019-04-30T19:36:54.806Z,9.60
2019-04-30T19:39:29.201Z,9.50
2019-04-30T19:41:58.737Z,9.50
2019-04-30T19:45:09.475Z,9.40
2019-04-30T19:48:15.907Z,9.40
2019-04-30T19:50:44.847Z,9.40
2019-04-30T19:53:54.248Z,9.30
2019-04-30T19:57:05.464Z,9.30
2019-04-30T19:59:39.640Z,9.30
2019-04-30T20:02:10.642Z,9.20
2019-04-30T20:04:42.331Z,9.20
2019-04-30T20:07:12.647Z,9.20
2019-04-30T20:09:57.607Z,9.10
2019-04-30T20:12:19.067Z,9.10
2019-04-30T20:15:00.536Z,9.00
2019-04-30T20:17:30.983Z,9.00
2019-04-30T20:20:01.216Z,8.90
2019-04-30T20:22:31.379Z,8.80
2019-04-30T20:25:01.599Z,8.80
2019-04-30T20:27:32.161Z,8.80
2019-04-30T20:30:02.467Z,8.70
2019-04-30T20:32:36.137Z,8.70
2019-04-30T20:35:05.332Z,8.70
2019-04-30T20:37:54.943Z,8.60
2019-04-30T20:40:33.276Z,8.50
2019-04-30T20:42:59.808Z,8.40
2019-04-30T20:45:32.879Z,8.40
2019-04-30T20:48:04.990Z,8.40
2019-04-30T20:50:37.850Z,8.30
2019-04-30T20:53:10.471Z,8.20
2019-04-30T20:55:44.790Z,8.20
2019-04-30T20:58:15.035Z,8.10
2019-04-30T21:02:52.899Z,8.00
2019-04-30T21:05:23.291Z,7.90
2019-04-30T21:07:53.524Z,7.90
2019-04-30T21:10:23.876Z,7.80
2019-04-30T21:12:54.072Z,7.80
2019-04-30T21:15:24.575Z,7.80
2019-04-30T21:17:54.954Z,7.80
2019-04-30T21:20:25.262Z,7.80
2019-04-30T21:22:55.593Z,7.70
2019-04-30T21:25:25.882Z,7.70
2019-04-30T21:27:56.098Z,7.60
2019-04-30T21:30:26.719Z,7.60
2019-04-30T21:33:12.314Z,7.50
2019-04-30T21:35:54.259Z,7.50
2019-04-30T21:38:24.574Z,7.50
2019-04-30T21:40:54.844Z,7.50
2019-04-30T21:43:27.426Z,7.50
2019-04-30T21:45:59.406Z,7.50
2019-04-30T21:48:29.611Z,7.50
2019-04-30T21:51:00.085Z,7.40
2019-04-30T21:53:30.361Z,7.30
2019-04-30T21:56:00.860Z,7.30
2019-04-30T21:58:31.004Z,7.30
2019-04-30T22:01:17.475Z,7.20
2019-04-30T22:03:48.346Z,7.20
2019-04-30T22:06:19.580Z,7.10
2019-04-30T22:08:50.010Z,7.10
2019-04-30T22:11:20.796Z,7.10
2019-04-30T22:13:51.353Z,7.00
2019-04-30T22:16:22.012Z,7.00
2019-04-30T22:18:55.072Z,7.00
2019-04-30T22:21:25.870Z,7.00
2019-04-30T22:23:56.188Z,6.90
2019-04-30T22:26:26.625Z,6.90
2019-04-30T22:28:56.929Z,6.90
2019-04-30T22:31:27.306Z,6.80
2019-04-30T22:33:58.959Z,6.80
2019-04-30T22:40:55.860Z,6.70
2019-04-30T22:43:27.335Z,6.70
2019-04-30T22:46:01.951Z,6.60
2019-04-30T22:48:32.615Z,6.60
2019-04-30T22:51:03.064Z,6.50
2019-04-30T22:53:33.399Z,6.50
2019-04-30T22:56:03.749Z,6.50
2019-04-30T22:58:34.164Z,6.50
2019-04-30T23:03:10.502Z,6.50
2019-04-30T23:05:41.800Z,6.50
2019-04-30T23:08:12.062Z,6.40
2019-04-30T23:10:43.328Z,6.30
2019-04-30T23:13:13.952Z,6.30
2019-04-30T23:15:45.319Z,6.30
2019-04-30T23:18:15.695Z,6.30
2019-04-30T23:20:46.309Z,6.20
2019-04-30T23:23:17.948Z,6.20
2019-04-30T23:25:48.838Z,6.20
2019-04-30T23:28:20.243Z,6.10
2019-04-30T23:30:50.838Z,6.10
2019-04-30T23:33:22.529Z,6.10
2019-04-30T23:35:53.182Z,6.00
2019-04-30T23:38:23.559Z,6.00
2019-04-30T23:40:56.361Z,6.00
2019-04-30T23:43:26.697Z,6.00
2019-04-30T23:45:57.129Z,5.90
2019-04-30T23:48:27.548Z,5.90
2019-04-30T23:50:57.789Z,5.80
2019-04-30T23:53:28.156Z,5.80
2019-04-30T23:55:58.723Z,5.80
2019-04-30T23:58:29.219Z,5.70
